sensor_id;sensor_type;location;lat;lon;timestamp;P1;durP1;ratioP1;P2;durP2;ratioP2
67941;SDS011;54731;42.600;23.476;2022-07-23T00:02:23;10.33;;;4.33;;
67941;SDS011;54731;42.600;23.476;2022-07-23T00:04:49;6.45;;;4.30;;
67941;SDS011;54731;42.600;23.476;2022-07-23T00:07:14;7.07;;;4.40;;
67941;SDS011;54731;42.600;23.476;2022-07-23T00:09:39;9.60;;;4.77;;
67941;SDS011;54731;42.600;23.476;2022-07-23T00:12:05;8.50;;;4.80;;
67941;SDS011;54731;42.600;23.476;2022-07-23T00:14:30;6.60;;;3.85;;
67941;SDS011;54731;42.600;23.476;2022-07-23T00:16:56;7.97;;;5.13;;
67941;SDS011;54731;42.600;23.476;2022-07-23T00:19:21;8.63;;;4.57;;
67941;SDS011;54731;42.600;23.476;2022-07-23T00:21:47;8.67;;;4.10;;
67941;SDS011;54731;42.600;23.476;2022-07-23T00:24:12;10.03;;;4.77;;
67941;SDS011;54731;42.600;23.476;2022-07-23T00:26:37;10.15;;;4.53;;
67941;SDS011;54731;42.600;23.476;2022-07-23T00:29:03;6.93;;;4.87;;
67941;SDS011;54731;42.600;23.476;2022-07-23T00:31:28;8.40;;;4.70;;
67941;SDS011;54731;42.600;23.476;2022-07-23T00:33:54;7.20;;;4.67;;
67941;SDS011;54731;42.600;23.476;2022-07-23T00:36:22;6.00;;;4.35;;
67941;SDS011;54731;42.600;23.476;2022-07-23T00:38:48;9.82;;;4.38;;
67941;SDS011;54731;42.600;23.476;2022-07-23T00:41:14;7.25;;;5.00;;
67941;SDS011;54731;42.600;23.476;2022-07-23T00:43:40;7.15;;;4.55;;
67941;SDS011;54731;42.600;23.476;2022-07-23T00:46:06;7.15;;;4.80;;
67941;SDS011;54731;42.600;23.476;2022-07-23T00:48:31;7.83;;;5.00;;
67941;SDS011;54731;42.600;23.476;2022-07-23T00:50:57;7.73;;;4.23;;
67941;SDS011;54731;42.600;23.476;2022-07-23T00:53:22;9.57;;;4.00;;
67941;SDS011;54731;42.600;23.476;2022-07-23T00:55:48;7.13;;;4.40;;
67941;SDS011;54731;42.600;23.476;2022-07-23T00:58:14;7.85;;;4.45;;
67941;SDS011;54731;42.600;23.476;2022-07-23T01:00:41;7.63;;;4.67;;
67941;SDS011;54731;42.600;23.476;2022-07-23T01:03:06;12.25;;;4.22;;
67941;SDS011;54731;42.600;23.476;2022-07-23T01:05:32;8.33;;;4.20;;
67941;SDS011;54731;42.600;23.476;2022-07-23T01:07:58;7.93;;;4.68;;
67941;SDS011;54731;42.600;23.476;2022-07-23T01:10:23;10.30;;;4.40;;
67941;SDS011;54731;42.600;23.476;2022-07-23T01:12:56;10.90;;;4.45;;
67941;SDS011;54731;42.600;23.476;2022-07-23T01:15:21;9.18;;;4.88;;
67941;SDS011;54731;42.600;23.476;2022-07-23T01:17:47;7.07;;;4.30;;
67941;SDS011;54731;42.600;23.476;2022-07-23T01:20:12;12.27;;;4.30;;
67941;SDS011;54731;42.600;23.476;2022-07-23T01:22:38;5.43;;;3.87;;
67941;SDS011;54731;42.600;23.476;2022-07-23T01:25:03;9.00;;;4.47;;
67941;SDS011;54731;42.600;23.476;2022-07-23T01:27:29;10.30;;;4.37;;
67941;SDS011;54731;42.600;23.476;2022-07-23T01:29:55;7.80;;;3.85;;
67941;SDS011;54731;42.600;23.476;2022-07-23T01:32:24;8.55;;;4.22;;
67941;SDS011;54731;42.600;23.476;2022-07-23T01:34:50;6.97;;;3.83;;
67941;SDS011;54731;42.600;23.476;2022-07-23T01:37:15;9.27;;;4.30;;
67941;SDS011;54731;42.600;23.476;2022-07-23T01:39:40;9.50;;;4.80;;
67941;SDS011;54731;42.600;23.476;2022-07-23T01:42:06;9.17;;;4.40;;
67941;SDS011;54731;42.600;23.476;2022-07-23T01:44:31;8.90;;;4.57;;
67941;SDS011;54731;42.600;23.476;2022-07-23T01:46:57;7.57;;;4.17;;
67941;SDS011;54731;42.600;23.476;2022-07-23T01:49:22;7.43;;;3.77;;
67941;SDS011;54731;42.600;23.476;2022-07-23T01:51:48;9.33;;;3.93;;
67941;SDS011;54731;42.600;23.476;2022-07-23T01:54:29;6.82;;;4.13;;
67941;SDS011;54731;42.600;23.476;2022-07-23T01:56:56;6.72;;;3.97;;
67941;SDS011;54731;42.600;23.476;2022-07-23T01:59:22;8.02;;;4.18;;
67941;SDS011;54731;42.600;23.476;2022-07-23T02:01:48;9.50;;;4.30;;
67941;SDS011;54731;42.600;23.476;2022-07-23T02:04:16;7.70;;;3.87;;
67941;SDS011;54731;42.600;23.476;2022-07-23T02:06:42;10.52;;;4.30;;
67941;SDS011;54731;42.600;23.476;2022-07-23T02:09:07;10.47;;;4.47;;
67941;SDS011;54731;42.600;23.476;2022-07-23T02:11:33;9.38;;;4.30;;
67941;SDS011;54731;42.600;23.476;2022-07-23T02:13:58;9.17;;;4.03;;
67941;SDS011;54731;42.600;23.476;2022-07-23T02:16:24;7.82;;;4.45;;
67941;SDS011;54731;42.600;23.476;2022-07-23T02:18:49;7.27;;;4.37;;
67941;SDS011;54731;42.600;23.476;2022-07-23T02:21:15;6.07;;;4.40;;
67941;SDS011;54731;42.600;23.476;2022-07-23T02:23:40;9.43;;;4.43;;
67941;SDS011;54731;42.600;23.476;2022-07-23T02:26:05;6.67;;;4.30;;
67941;SDS011;54731;42.600;23.476;2022-07-23T02:28:31;7.95;;;4.10;;
67941;SDS011;54731;42.600;23.476;2022-07-23T02:30:56;8.98;;;4.43;;
67941;SDS011;54731;42.600;23.476;2022-07-23T02:33:22;6.77;;;4.33;;
67941;SDS011;54731;42.600;23.476;2022-07-23T02:35:47;7.17;;;4.20;;
67941;SDS011;54731;42.600;23.476;2022-07-23T02:38:12;7.50;;;4.23;;
67941;SDS011;54731;42.600;23.476;2022-07-23T02:40:38;9.25;;;3.97;;
67941;SDS011;54731;42.600;23.476;2022-07-23T02:43:03;10.97;;;4.50;;
67941;SDS011;54731;42.600;23.476;2022-07-23T02:45:29;12.03;;;4.40;;
67941;SDS011;54731;42.600;23.476;2022-07-23T02:47:54;10.73;;;4.10;;
67941;SDS011;54731;42.600;23.476;2022-07-23T02:50:20;6.85;;;4.65;;
67941;SDS011;54731;42.600;23.476;2022-07-23T02:52:45;5.97;;;4.20;;
67941;SDS011;54731;42.600;23.476;2022-07-23T02:55:11;10.27;;;4.60;;
67941;SDS011;54731;42.600;23.476;2022-07-23T02:57:36;10.85;;;4.85;;
67941;SDS011;54731;42.600;23.476;2022-07-23T03:00:03;10.52;;;4.38;;
67941;SDS011;54731;42.600;23.476;2022-07-23T03:02:30;13.07;;;4.70;;
67941;SDS011;54731;42.600;23.476;2022-07-23T03:04:55;11.00;;;4.53;;
67941;SDS011;54731;42.600;23.476;2022-07-23T03:07:21;8.10;;;4.43;;
67941;SDS011;54731;42.600;23.476;2022-07-23T03:09:46;17.53;;;5.60;;
67941;SDS011;54731;42.600;23.476;2022-07-23T03:12:12;10.03;;;4.50;;
67941;SDS011;54731;42.600;23.476;2022-07-23T03:14:37;8.33;;;4.70;;
67941;SDS011;54731;42.600;23.476;2022-07-23T03:17:03;11.40;;;4.50;;
67941;SDS011;54731;42.600;23.476;2022-07-23T03:19:28;9.07;;;4.60;;
67941;SDS011;54731;42.600;23.476;2022-07-23T03:21:54;8.05;;;4.32;;
67941;SDS011;54731;42.600;23.476;2022-07-23T03:24:19;10.83;;;4.67;;
67941;SDS011;54731;42.600;23.476;2022-07-23T03:26:45;13.67;;;5.00;;
67941;SDS011;54731;42.600;23.476;2022-07-23T03:29:10;8.50;;;4.27;;
67941;SDS011;54731;42.600;23.476;2022-07-23T03:31:36;8.27;;;4.55;;
67941;SDS011;54731;42.600;23.476;2022-07-23T03:34:02;10.10;;;5.07;;
67941;SDS011;54731;42.600;23.476;2022-07-23T03:36:28;11.17;;;5.07;;
67941;SDS011;54731;42.600;23.476;2022-07-23T03:38:53;11.70;;;5.20;;
67941;SDS011;54731;42.600;23.476;2022-07-23T03:41:19;6.83;;;4.53;;
67941;SDS011;54731;42.600;23.476;2022-07-23T03:43:45;8.88;;;5.50;;
67941;SDS011;54731;42.600;23.476;2022-07-23T03:46:11;9.18;;;4.45;;
67941;SDS011;54731;42.600;23.476;2022-07-23T03:48:36;8.15;;;4.43;;
67941;SDS011;54731;42.600;23.476;2022-07-23T03:51:02;8.03;;;4.77;;
67941;SDS011;54731;42.600;23.476;2022-07-23T03:53:27;11.13;;;4.10;;
67941;SDS011;54731;42.600;23.476;2022-07-23T03:55:53;10.13;;;5.20;;
67941;SDS011;54731;42.600;23.476;2022-07-23T03:58:18;12.98;;;5.53;;
67941;SDS011;54731;42.600;23.476;2022-07-23T04:00:44;7.28;;;4.90;;
67941;SDS011;54731;42.600;23.476;2022-07-23T04:03:09;9.47;;;5.53;;
67941;SDS011;54731;42.600;23.476;2022-07-23T04:05:35;14.03;;;5.23;;
67941;SDS011;54731;42.600;23.476;2022-07-23T04:08:00;14.97;;;5.80;;
67941;SDS011;54731;42.600;23.476;2022-07-23T04:10:25;9.15;;;5.55;;
67941;SDS011;54731;42.600;23.476;2022-07-23T04:12:51;10.10;;;5.67;;
67941;SDS011;54731;42.600;23.476;2022-07-23T04:15:16;9.93;;;6.10;;
67941;SDS011;54731;42.600;23.476;2022-07-23T04:17:42;11.17;;;6.20;;
67941;SDS011;54731;42.600;23.476;2022-07-23T04:20:09;10.80;;;5.93;;
67941;SDS011;54731;42.600;23.476;2022-07-23T04:22:35;8.95;;;6.22;;
67941;SDS011;54731;42.600;23.476;2022-07-23T04:25:01;8.53;;;5.67;;
67941;SDS011;54731;42.600;23.476;2022-07-23T04:27:27;10.63;;;5.90;;
67941;SDS011;54731;42.600;23.476;2022-07-23T04:29:52;10.13;;;6.60;;
67941;SDS011;54731;42.600;23.476;2022-07-23T04:32:18;11.30;;;6.13;;
67941;SDS011;54731;42.600;23.476;2022-07-23T04:34:43;12.60;;;5.63;;
67941;SDS011;54731;42.600;23.476;2022-07-23T04:37:08;17.77;;;6.57;;
67941;SDS011;54731;42.600;23.476;2022-07-23T04:39:34;10.63;;;6.60;;
67941;SDS011;54731;42.600;23.476;2022-07-23T04:41:59;9.57;;;6.43;;
67941;SDS011;54731;42.600;23.476;2022-07-23T04:44:25;10.17;;;7.00;;
67941;SDS011;54731;42.600;23.476;2022-07-23T04:46:50;7.33;;;6.33;;
67941;SDS011;54731;42.600;23.476;2022-07-23T04:49:15;14.77;;;6.40;;
67941;SDS011;54731;42.600;23.476;2022-07-23T04:51:41;12.87;;;6.47;;
67941;SDS011;54731;42.600;23.476;2022-07-23T04:54:06;11.93;;;6.80;;
67941;SDS011;54731;42.600;23.476;2022-07-23T04:56:32;12.60;;;7.05;;
67941;SDS011;54731;42.600;23.476;2022-07-23T04:58:57;10.50;;;6.47;;
67941;SDS011;54731;42.600;23.476;2022-07-23T05:01:23;11.27;;;6.37;;
67941;SDS011;54731;42.600;23.476;2022-07-23T05:03:48;9.87;;;6.57;;
67941;SDS011;54731;42.600;23.476;2022-07-23T05:06:14;9.60;;;6.40;;
67941;SDS011;54731;42.600;23.476;2022-07-23T05:08:40;12.82;;;6.75;;
67941;SDS011;54731;42.600;23.476;2022-07-23T05:11:05;10.88;;;7.00;;
67941;SDS011;54731;42.600;23.476;2022-07-23T05:13:31;11.37;;;6.97;;
67941;SDS011;54731;42.600;23.476;2022-07-23T05:15:56;7.73;;;5.70;;
67941;SDS011;54731;42.600;23.476;2022-07-23T05:18:21;12.20;;;5.90;;
67941;SDS011;54731;42.600;23.476;2022-07-23T05:20:47;8.07;;;5.50;;
67941;SDS011;54731;42.600;23.476;2022-07-23T05:23:12;11.67;;;5.30;;
67941;SDS011;54731;42.600;23.476;2022-07-23T05:25:38;8.60;;;5.67;;
67941;SDS011;54731;42.600;23.476;2022-07-23T05:28:04;13.07;;;6.15;;
67941;SDS011;54731;42.600;23.476;2022-07-23T05:30:30;12.40;;;6.43;;
67941;SDS011;54731;42.600;23.476;2022-07-23T05:32:55;10.13;;;5.67;;
67941;SDS011;54731;42.600;23.476;2022-07-23T05:35:21;10.67;;;5.83;;
67941;SDS011;54731;42.600;23.476;2022-07-23T05:37:46;11.03;;;5.97;;
67941;SDS011;54731;42.600;23.476;2022-07-23T05:40:12;9.47;;;6.30;;
67941;SDS011;54731;42.600;23.476;2022-07-23T05:42:38;11.48;;;6.10;;
67941;SDS011;54731;42.600;23.476;2022-07-23T05:45:05;14.60;;;6.03;;
67941;SDS011;54731;42.600;23.476;2022-07-23T05:50:07;13.90;;;5.95;;
67941;SDS011;54731;42.600;23.476;2022-07-23T05:52:36;15.13;;;6.00;;
67941;SDS011;54731;42.600;23.476;2022-07-23T05:55:01;13.77;;;5.87;;
67941;SDS011;54731;42.600;23.476;2022-07-23T05:57:27;10.57;;;6.78;;
67941;SDS011;54731;42.600;23.476;2022-07-23T05:59:52;9.43;;;6.15;;
67941;SDS011;54731;42.600;23.476;2022-07-23T06:02:18;11.13;;;6.03;;
67941;SDS011;54731;42.600;23.476;2022-07-23T06:04:43;14.13;;;6.00;;
67941;SDS011;54731;42.600;23.476;2022-07-23T06:07:09;10.57;;;5.70;;
67941;SDS011;54731;42.600;23.476;2022-07-23T06:09:34;16.23;;;6.40;;
67941;SDS011;54731;42.600;23.476;2022-07-23T06:11:59;8.18;;;6.03;;
67941;SDS011;54731;42.600;23.476;2022-07-23T06:14:25;10.13;;;5.97;;
67941;SDS011;54731;42.600;23.476;2022-07-23T06:16:50;11.37;;;5.97;;
67941;SDS011;54731;42.600;23.476;2022-07-23T06:19:16;15.83;;;6.47;;
67941;SDS011;54731;42.600;23.476;2022-07-23T06:21:41;9.98;;;6.28;;
67941;SDS011;54731;42.600;23.476;2022-07-23T06:24:07;13.98;;;6.60;;
67941;SDS011;54731;42.600;23.476;2022-07-23T06:26:33;10.50;;;6.20;;
67941;SDS011;54731;42.600;23.476;2022-07-23T06:28:58;11.17;;;6.60;;
67941;SDS011;54731;42.600;23.476;2022-07-23T06:31:24;10.37;;;6.67;;
67941;SDS011;54731;42.600;23.476;2022-07-23T06:33:49;12.17;;;6.53;;
67941;SDS011;54731;42.600;23.476;2022-07-23T06:36:15;11.75;;;6.50;;
67941;SDS011;54731;42.600;23.476;2022-07-23T06:38:40;12.00;;;6.70;;
67941;SDS011;54731;42.600;23.476;2022-07-23T06:41:05;9.40;;;6.70;;
67941;SDS011;54731;42.600;23.476;2022-07-23T06:43:31;14.63;;;7.70;;
67941;SDS011;54731;42.600;23.476;2022-07-23T06:45:56;10.88;;;6.78;;
67941;SDS011;54731;42.600;23.476;2022-07-23T06:48:22;14.37;;;6.53;;
67941;SDS011;54731;42.600;23.476;2022-07-23T06:50:47;9.83;;;6.93;;
67941;SDS011;54731;42.600;23.476;2022-07-23T06:53:13;9.75;;;6.47;;
67941;SDS011;54731;42.600;23.476;2022-07-23T06:55:38;9.43;;;6.97;;
67941;SDS011;54731;42.600;23.476;2022-07-23T06:58:05;11.60;;;6.95;;
67941;SDS011;54731;42.600;23.476;2022-07-23T07:00:30;15.90;;;7.60;;
67941;SDS011;54731;42.600;23.476;2022-07-23T07:02:57;13.73;;;7.00;;
67941;SDS011;54731;42.600;23.476;2022-07-23T07:05:23;12.18;;;6.95;;
67941;SDS011;54731;42.600;23.476;2022-07-23T07:07:50;14.27;;;6.55;;
67941;SDS011;54731;42.600;23.476;2022-07-23T07:10:15;14.32;;;7.82;;
67941;SDS011;54731;42.600;23.476;2022-07-23T07:12:42;11.10;;;7.38;;
67941;SDS011;54731;42.600;23.476;2022-07-23T07:15:08;12.07;;;7.75;;
67941;SDS011;54731;42.600;23.476;2022-07-23T07:17:33;15.97;;;7.90;;
67941;SDS011;54731;42.600;23.476;2022-07-23T07:19:59;14.50;;;6.97;;
67941;SDS011;54731;42.600;23.476;2022-07-23T07:22:24;14.43;;;6.80;;
67941;SDS011;54731;42.600;23.476;2022-07-23T07:24:50;14.17;;;7.60;;
67941;SDS011;54731;42.600;23.476;2022-07-23T07:27:15;13.13;;;7.80;;
67941;SDS011;54731;42.600;23.476;2022-07-23T07:29:40;17.43;;;7.17;;
67941;SDS011;54731;42.600;23.476;2022-07-23T07:32:06;17.35;;;7.20;;
67941;SDS011;54731;42.600;23.476;2022-07-23T07:34:31;13.40;;;7.03;;
67941;SDS011;54731;42.600;23.476;2022-07-23T07:36:57;12.33;;;7.70;;
67941;SDS011;54731;42.600;23.476;2022-07-23T07:39:22;12.83;;;7.53;;
67941;SDS011;54731;42.600;23.476;2022-07-23T07:41:48;13.88;;;6.63;;
67941;SDS011;54731;42.600;23.476;2022-07-23T07:44:13;18.30;;;6.90;;
67941;SDS011;54731;42.600;23.476;2022-07-23T07:46:38;12.50;;;6.60;;
67941;SDS011;54731;42.600;23.476;2022-07-23T07:49:04;9.90;;;6.13;;
67941;SDS011;54731;42.600;23.476;2022-07-23T07:51:29;12.00;;;6.60;;
67941;SDS011;54731;42.600;23.476;2022-07-23T07:53:55;11.98;;;6.72;;
67941;SDS011;54731;42.600;23.476;2022-07-23T07:56:21;11.03;;;7.23;;
67941;SDS011;54731;42.600;23.476;2022-07-23T07:58:46;11.25;;;5.90;;
67941;SDS011;54731;42.600;23.476;2022-07-23T08:01:12;9.40;;;6.30;;
67941;SDS011;54731;42.600;23.476;2022-07-23T08:03:37;9.67;;;6.10;;
67941;SDS011;54731;42.600;23.476;2022-07-23T08:06:02;12.03;;;6.00;;
67941;SDS011;54731;42.600;23.476;2022-07-23T08:08:28;8.98;;;5.90;;
67941;SDS011;54731;42.600;23.476;2022-07-23T08:10:53;11.43;;;6.30;;
67941;SDS011;54731;42.600;23.476;2022-07-23T08:13:19;15.90;;;5.93;;
67941;SDS011;54731;42.600;23.476;2022-07-23T08:15:44;11.53;;;6.03;;
67941;SDS011;54731;42.600;23.476;2022-07-23T08:18:10;9.40;;;5.53;;
67941;SDS011;54731;42.600;23.476;2022-07-23T08:20:35;10.00;;;5.18;;
67941;SDS011;54731;42.600;23.476;2022-07-23T08:23:05;12.25;;;5.78;;
67941;SDS011;54731;42.600;23.476;2022-07-23T08:25:36;10.50;;;6.13;;
67941;SDS011;54731;42.600;23.476;2022-07-23T08:28:06;14.35;;;6.50;;
67941;SDS011;54731;42.600;23.476;2022-07-23T08:30:33;11.00;;;6.00;;
67941;SDS011;54731;42.600;23.476;2022-07-23T08:33:01;13.02;;;5.90;;
67941;SDS011;54731;42.600;23.476;2022-07-23T08:35:35;13.98;;;6.97;;
67941;SDS011;54731;42.600;23.476;2022-07-23T08:38:05;13.75;;;6.25;;
67941;SDS011;54731;42.600;23.476;2022-07-23T08:40:33;8.88;;;5.90;;
67941;SDS011;54731;42.600;23.476;2022-07-23T08:43:00;12.05;;;5.85;;
67941;SDS011;54731;42.600;23.476;2022-07-23T08:45:30;14.27;;;6.00;;
67941;SDS011;54731;42.600;23.476;2022-07-23T08:48:00;14.80;;;6.00;;
67941;SDS011;54731;42.600;23.476;2022-07-23T08:50:25;15.73;;;5.90;;
67941;SDS011;54731;42.600;23.476;2022-07-23T08:52:52;12.53;;;6.20;;
67941;SDS011;54731;42.600;23.476;2022-07-23T08:55:19;9.80;;;5.72;;
67941;SDS011;54731;42.600;23.476;2022-07-23T08:57:47;17.42;;;5.00;;
67941;SDS011;54731;42.600;23.476;2022-07-23T09:00:14;10.45;;;5.70;;
67941;SDS011;54731;42.600;23.476;2022-07-23T09:02:40;15.48;;;6.00;;
67941;SDS011;54731;42.600;23.476;2022-07-23T09:05:08;10.20;;;5.97;;
67941;SDS011;54731;42.600;23.476;2022-07-23T09:07:36;11.15;;;5.75;;
67941;SDS011;54731;42.600;23.476;2022-07-23T09:10:08;10.57;;;5.45;;
67941;SDS011;54731;42.600;23.476;2022-07-23T09:12:35;13.30;;;6.43;;
67941;SDS011;54731;42.600;23.476;2022-07-23T09:15:06;8.52;;;5.95;;
67941;SDS011;54731;42.600;23.476;2022-07-23T09:17:37;7.85;;;5.60;;
67941;SDS011;54731;42.600;23.476;2022-07-23T09:20:08;14.63;;;6.00;;
67941;SDS011;54731;42.600;23.476;2022-07-23T09:22:35;9.90;;;5.93;;
67941;SDS011;54731;42.600;23.476;2022-07-23T09:30:18;12.40;;;6.40;;
67941;SDS011;54731;42.600;23.476;2022-07-23T09:32:44;12.40;;;5.57;;
67941;SDS011;54731;42.600;23.476;2022-07-23T09:38:19;10.37;;;5.83;;
67941;SDS011;54731;42.600;23.476;2022-07-23T09:40:46;9.25;;;5.90;;
67941;SDS011;54731;42.600;23.476;2022-07-23T09:43:13;12.10;;;5.95;;
67941;SDS011;54731;42.600;23.476;2022-07-23T09:45:52;11.90;;;5.95;;
67941;SDS011;54731;42.600;23.476;2022-07-23T09:48:18;11.23;;;6.70;;
67941;SDS011;54731;42.600;23.476;2022-07-23T09:50:44;13.52;;;6.53;;
67941;SDS011;54731;42.600;23.476;2022-07-23T09:53:23;13.43;;;6.60;;
67941;SDS011;54731;42.600;23.476;2022-07-23T09:55:51;10.43;;;5.78;;
67941;SDS011;54731;42.600;23.476;2022-07-23T09:58:18;13.73;;;6.30;;
67941;SDS011;54731;42.600;23.476;2022-07-23T10:00:47;10.48;;;5.70;;
67941;SDS011;54731;42.600;23.476;2022-07-23T10:03:14;14.05;;;6.22;;
67941;SDS011;54731;42.600;23.476;2022-07-23T10:05:40;17.20;;;6.38;;
67941;SDS011;54731;42.600;23.476;2022-07-23T10:08:08;15.57;;;6.78;;
67941;SDS011;54731;42.600;23.476;2022-07-23T10:10:36;12.80;;;6.63;;
67941;SDS011;54731;42.600;23.476;2022-07-23T10:13:04;18.00;;;7.05;;
67941;SDS011;54731;42.600;23.476;2022-07-23T10:15:49;15.43;;;7.50;;
67941;SDS011;54731;42.600;23.476;2022-07-23T10:18:16;14.77;;;6.20;;
67941;SDS011;54731;42.600;23.476;2022-07-23T10:20:42;18.08;;;6.38;;
67941;SDS011;54731;42.600;23.476;2022-07-23T10:25:51;13.30;;;6.00;;
67941;SDS011;54731;42.600;23.476;2022-07-23T10:28:40;15.73;;;6.68;;
67941;SDS011;54731;42.600;23.476;2022-07-23T10:34:21;10.52;;;6.00;;
67941;SDS011;54731;42.600;23.476;2022-07-23T10:36:54;7.78;;;5.13;;
67941;SDS011;54731;42.600;23.476;2022-07-23T10:39:28;18.10;;;6.30;;
67941;SDS011;54731;42.600;23.476;2022-07-23T10:44:39;13.15;;;6.07;;
67941;SDS011;54731;42.600;23.476;2022-07-23T10:47:08;13.00;;;6.00;;
67941;SDS011;54731;42.600;23.476;2022-07-23T10:49:53;18.15;;;7.20;;
67941;SDS011;54731;42.600;23.476;2022-07-23T10:52:22;14.90;;;6.20;;
67941;SDS011;54731;42.600;23.476;2022-07-23T10:54:53;10.50;;;5.90;;
67941;SDS011;54731;42.600;23.476;2022-07-23T10:57:29;12.10;;;6.18;;
67941;SDS011;54731;42.600;23.476;2022-07-23T11:02:32;20.30;;;10.65;;
67941;SDS011;54731;42.600;23.476;2022-07-23T11:05:00;21.30;;;6.07;;
67941;SDS011;54731;42.600;23.476;2022-07-23T11:07:27;12.70;;;5.60;;
67941;SDS011;54731;42.600;23.476;2022-07-23T11:09:53;13.65;;;5.40;;
67941;SDS011;54731;42.600;23.476;2022-07-23T11:17:28;16.85;;;6.07;;
67941;SDS011;54731;42.600;23.476;2022-07-23T11:25:09;33.72;;;7.18;;
67941;SDS011;54731;42.600;23.476;2022-07-23T11:27:39;26.58;;;6.13;;
67941;SDS011;54731;42.600;23.476;2022-07-23T11:30:06;14.55;;;5.35;;
67941;SDS011;54731;42.600;23.476;2022-07-23T11:32:38;97.10;;;9.87;;
67941;SDS011;54731;42.600;23.476;2022-07-23T11:40:46;17.33;;;5.40;;
67941;SDS011;54731;42.600;23.476;2022-07-23T11:43:13;15.82;;;5.22;;
67941;SDS011;54731;42.600;23.476;2022-07-23T11:45:53;19.27;;;5.73;;
67941;SDS011;54731;42.600;23.476;2022-07-23T11:48:24;19.55;;;5.57;;
67941;SDS011;54731;42.600;23.476;2022-07-23T11:50:52;18.33;;;5.63;;
67941;SDS011;54731;42.600;23.476;2022-07-23T11:53:25;17.20;;;5.85;;
67941;SDS011;54731;42.600;23.476;2022-07-23T11:55:51;17.48;;;6.10;;
67941;SDS011;54731;42.600;23.476;2022-07-23T11:58:18;22.93;;;6.67;;
67941;SDS011;54731;42.600;23.476;2022-07-23T12:00:43;12.88;;;6.43;;
67941;SDS011;54731;42.600;23.476;2022-07-23T12:03:09;13.00;;;6.07;;
67941;SDS011;54731;42.600;23.476;2022-07-23T12:05:35;18.88;;;7.13;;
67941;SDS011;54731;42.600;23.476;2022-07-23T12:08:03;15.45;;;6.57;;
67941;SDS011;54731;42.600;23.476;2022-07-23T12:10:33;17.07;;;6.33;;
67941;SDS011;54731;42.600;23.476;2022-07-23T12:12:59;16.70;;;6.32;;
67941;SDS011;54731;42.600;23.476;2022-07-23T12:15:37;24.38;;;6.63;;
67941;SDS011;54731;42.600;23.476;2022-07-23T12:18:08;17.70;;;6.07;;
67941;SDS011;54731;42.600;23.476;2022-07-23T12:20:40;18.85;;;7.28;;
67941;SDS011;54731;42.600;23.476;2022-07-23T12:23:08;12.87;;;7.10;;
67941;SDS011;54731;42.600;23.476;2022-07-23T12:25:40;18.88;;;6.88;;
67941;SDS011;54731;42.600;23.476;2022-07-23T12:28:08;21.48;;;6.53;;
67941;SDS011;54731;42.600;23.476;2022-07-23T12:30:42;20.75;;;6.22;;
67941;SDS011;54731;42.600;23.476;2022-07-23T12:33:09;18.77;;;6.95;;
67941;SDS011;54731;42.600;23.476;2022-07-23T12:35:44;19.97;;;7.33;;
67941;SDS011;54731;42.600;23.476;2022-07-23T12:38:14;21.05;;;6.50;;
67941;SDS011;54731;42.600;23.476;2022-07-23T12:43:18;16.75;;;7.53;;
67941;SDS011;54731;42.600;23.476;2022-07-23T12:48:28;15.97;;;7.93;;
67941;SDS011;54731;42.600;23.476;2022-07-23T12:50:59;18.15;;;7.05;;
67941;SDS011;54731;42.600;23.476;2022-07-23T12:56:03;18.20;;;7.10;;
67941;SDS011;54731;42.600;23.476;2022-07-23T12:58:43;19.00;;;7.50;;
67941;SDS011;54731;42.600;23.476;2022-07-23T13:06:23;17.00;;;6.78;;
67941;SDS011;54731;42.600;23.476;2022-07-23T13:08:49;18.03;;;7.70;;
67941;SDS011;54731;42.600;23.476;2022-07-23T13:11:14;13.95;;;6.82;;
67941;SDS011;54731;42.600;23.476;2022-07-23T13:13:40;12.23;;;6.07;;
67941;SDS011;54731;42.600;23.476;2022-07-23T13:16:06;15.25;;;6.28;;
67941;SDS011;54731;42.600;23.476;2022-07-23T13:18:31;20.30;;;6.33;;
67941;SDS011;54731;42.600;23.476;2022-07-23T13:20:57;37.60;;;7.20;;
67941;SDS011;54731;42.600;23.476;2022-07-23T13:23:26;15.07;;;6.57;;
67941;SDS011;54731;42.600;23.476;2022-07-23T13:25:52;14.95;;;7.07;;
67941;SDS011;54731;42.600;23.476;2022-07-23T13:28:18;19.63;;;7.50;;
67941;SDS011;54731;42.600;23.476;2022-07-23T13:30:45;20.35;;;8.23;;
67941;SDS011;54731;42.600;23.476;2022-07-23T13:33:12;29.83;;;8.57;;
67941;SDS011;54731;42.600;23.476;2022-07-23T13:35:38;25.17;;;7.30;;
67941;SDS011;54731;42.600;23.476;2022-07-23T13:38:04;17.50;;;7.68;;
67941;SDS011;54731;42.600;23.476;2022-07-23T13:40:33;21.65;;;8.50;;
67941;SDS011;54731;42.600;23.476;2022-07-23T13:42:59;15.40;;;7.33;;
67941;SDS011;54731;42.600;23.476;2022-07-23T13:45:25;19.27;;;6.90;;
67941;SDS011;54731;42.600;23.476;2022-07-23T13:47:50;23.83;;;12.03;;
67941;SDS011;54731;42.600;23.476;2022-07-23T13:50:15;19.33;;;8.13;;
67941;SDS011;54731;42.600;23.476;2022-07-23T13:52:41;16.30;;;7.47;;
67941;SDS011;54731;42.600;23.476;2022-07-23T13:55:08;17.30;;;7.18;;
67941;SDS011;54731;42.600;23.476;2022-07-23T13:57:33;16.15;;;11.02;;
67941;SDS011;54731;42.600;23.476;2022-07-23T13:59:59;16.30;;;9.17;;
67941;SDS011;54731;42.600;23.476;2022-07-23T14:02:25;16.53;;;8.23;;
67941;SDS011;54731;42.600;23.476;2022-07-23T14:04:50;17.10;;;8.20;;
67941;SDS011;54731;42.600;23.476;2022-07-23T14:07:16;19.00;;;7.97;;
67941;SDS011;54731;42.600;23.476;2022-07-23T14:09:42;29.20;;;8.43;;
67941;SDS011;54731;42.600;23.476;2022-07-23T14:12:08;15.43;;;7.20;;
67941;SDS011;54731;42.600;23.476;2022-07-23T14:14:34;15.23;;;8.23;;
67941;SDS011;54731;42.600;23.476;2022-07-23T14:16:59;15.32;;;7.53;;
67941;SDS011;54731;42.600;23.476;2022-07-23T14:19:25;18.40;;;8.87;;
67941;SDS011;54731;42.600;23.476;2022-07-23T14:21:50;18.10;;;8.65;;
67941;SDS011;54731;42.600;23.476;2022-07-23T14:24:16;16.50;;;8.47;;
67941;SDS011;54731;42.600;23.476;2022-07-23T14:26:42;14.68;;;9.05;;
67941;SDS011;54731;42.600;23.476;2022-07-23T14:29:08;17.07;;;8.17;;
67941;SDS011;54731;42.600;23.476;2022-07-23T14:31:34;18.38;;;7.97;;
67941;SDS011;54731;42.600;23.476;2022-07-23T14:33:59;17.83;;;7.27;;
67941;SDS011;54731;42.600;23.476;2022-07-23T14:36:25;19.43;;;9.10;;
67941;SDS011;54731;42.600;23.476;2022-07-23T14:38:51;15.93;;;8.25;;
67941;SDS011;54731;42.600;23.476;2022-07-23T14:41:16;12.73;;;8.27;;
67941;SDS011;54731;42.600;23.476;2022-07-23T14:43:43;13.98;;;8.02;;
67941;SDS011;54731;42.600;23.476;2022-07-23T14:46:08;14.98;;;8.20;;
67941;SDS011;54731;42.600;23.476;2022-07-23T14:48:34;14.83;;;8.47;;
67941;SDS011;54731;42.600;23.476;2022-07-23T14:51:01;16.30;;;7.80;;
67941;SDS011;54731;42.600;23.476;2022-07-23T14:53:27;14.37;;;8.37;;
67941;SDS011;54731;42.600;23.476;2022-07-23T14:55:52;18.23;;;7.97;;
67941;SDS011;54731;42.600;23.476;2022-07-23T14:58:18;17.48;;;8.02;;
67941;SDS011;54731;42.600;23.476;2022-07-23T15:00:43;15.73;;;8.50;;
67941;SDS011;54731;42.600;23.476;2022-07-23T15:03:08;14.17;;;8.20;;
67941;SDS011;54731;42.600;23.476;2022-07-23T15:05:34;16.37;;;8.10;;
67941;SDS011;54731;42.600;23.476;2022-07-23T15:07:59;15.57;;;8.32;;
67941;SDS011;54731;42.600;23.476;2022-07-23T15:10:25;16.03;;;8.17;;
67941;SDS011;54731;42.600;23.476;2022-07-23T15:12:50;15.70;;;7.87;;
67941;SDS011;54731;42.600;23.476;2022-07-23T15:15:16;16.57;;;7.67;;